This is the latest recevied weather packets stored in our database for station/object DB0SMU-12. If no packets are shown the sender has not sent any weather packets the latest 1 day(s).
| Time | Temp. | Humidity | Pressure | Rain* | Wind** | Luminosity | Snow |
|---|---|---|---|---|---|---|---|
| 1777987883 | 17.78° C | 58% | 1008.5 hPa | 0 mm | 3.13 m/s, 277° | - | - |
| 1777987702 | 18.33° C | 57% | 1008.4 hPa | 0 mm | 2.68 m/s, 254° | - | - |
| 1777987521 | 18.33° C | 58% | 1008.4 hPa | 0 mm | 3.58 m/s, 259° | - | - |
| 1777987341 | 18.33° C | 57% | 1008.4 hPa | 0 mm | 3.58 m/s, 260° | - | - |
| 1777987160 | 18.89° C | 56% | 1008.4 hPa | 0 mm | 4.02 m/s, 261° | - | - |
| 1777986979 | 18.89° C | 54% | 1008.4 hPa | 0 mm | 4.47 m/s, 265° | - | - |
| 1777986798 | 18.89° C | 50% | 1008.5 hPa | 0 mm | 3.58 m/s, 280° | - | - |
| 1777986617 | 19.44° C | 50% | 1008.5 hPa | 0 mm | 4.02 m/s, 256° | - | - |
| 1777986436 | 19.44° C | 51% | 1008.5 hPa | 0 mm | 4.02 m/s, 263° | - | - |
| 1777986255 | 19.44° C | 50% | 1008.4 hPa | 0 mm | 4.02 m/s, 260° | - | - |
| 1777986075 | 19.44° C | 50% | 1008.5 hPa | 0 mm | 4.02 m/s, 258° | - | - |
| 1777985894 | 19.44° C | 49% | 1008.4 hPa | 0 mm | 3.13 m/s, 256° | - | - |
| 1777985713 | 19.44° C | 50% | 1008.3 hPa | 0 mm | 4.02 m/s, 244° | - | - |
| 1777985532 | 19.44° C | 50% | 1008.2 hPa | 0 mm | 2.68 m/s, 262° | - | - |
| 1777985351 | 18.89° C | 49% | 1008.2 hPa | 0 mm | 4.47 m/s, 250° | - | - |
| 1777985170 | 18.89° C | 50% | 1008.2 hPa | 0 mm | 2.24 m/s, 296° | - | - |
| 1777984805 | 18.89° C | 51% | 1008.3 hPa | 0 mm | 3.58 m/s, 258° | - | - |
| 1777984624 | 19.44° C | 49% | 1008.2 hPa | 0 mm | 4.02 m/s, 266° | - | - |
| 1777984443 | 19.44° C | 50% | 1008.2 hPa | 0 mm | 4.47 m/s, 253° | - | - |
| 1777984262 | 19.44° C | 50% | 1008.3 hPa | 0 mm | 3.58 m/s, 267° | - | - |
| 1777984081 | 19.44° C | 50% | 1008.3 hPa | 0 mm | 3.13 m/s, 275° | - | - |
| 1777983900 | 19.44° C | 50% | 1008.2 hPa | 0 mm | 4.02 m/s, 249° | - | - |
| 1777983719 | 19.44° C | 50% | 1008.5 hPa | 0 mm | 3.58 m/s, 249° | - | - |
| 1777983539 | 20° C | 49% | 1008.4 hPa | 0 mm | 4.92 m/s, 264° | - | - |
| 1777983358 | 20° C | 49% | 1008.5 hPa | 0 mm | 4.92 m/s, 258° | - | - |
* Rain latest hour (hover to see other rain measurements)
** Current wind speed in m/s (hover to see current wind gust speed)